createdAt,value
2018-03-14T00:00:36.360Z,27.70
2018-03-14T00:03:02.475Z,28.43
2018-03-14T00:05:28.643Z,26.20
2018-03-14T00:07:54.881Z,29.20
2018-03-14T00:10:21.280Z,28.37
2018-03-14T00:12:47.465Z,27.13
2018-03-14T00:15:13.633Z,26.83
2018-03-14T00:17:39.768Z,28.87
2018-03-14T00:20:05.914Z,24.90
2018-03-14T00:22:32.155Z,26.47
2018-03-14T00:24:58.300Z,26.33
2018-03-14T00:27:24.448Z,26.80
2018-03-14T00:29:51.368Z,28.07
2018-03-14T00:32:17.568Z,28.33
2018-03-14T00:34:43.745Z,30.07
2018-03-14T00:37:09.912Z,30.10
2018-03-14T00:39:36.076Z,27.50
2018-03-14T00:42:02.340Z,26.53
2018-03-14T00:44:28.460Z,27.27
2018-03-14T00:46:54.627Z,26.60
2018-03-14T00:49:20.777Z,27.27
2018-03-14T00:51:46.994Z,28.30
2018-03-14T00:54:13.117Z,28.70
2018-03-14T00:56:40.013Z,26.90
2018-03-14T00:59:06.182Z,26.73
2018-03-14T01:01:32.305Z,26.47
2018-03-14T01:03:58.519Z,26.70
2018-03-14T01:06:24.641Z,26.00
2018-03-14T01:08:50.780Z,26.87
2018-03-14T01:11:17.001Z,28.27
2018-03-14T01:13:43.881Z,29.50
2018-03-14T01:16:10.005Z,26.13
2018-03-14T01:18:36.882Z,26.60
2018-03-14T01:21:03.034Z,25.70
2018-03-14T01:23:29.179Z,27.80
2018-03-14T01:25:55.449Z,24.53
2018-03-14T01:28:21.691Z,29.20
2018-03-14T01:30:47.840Z,28.70
2018-03-14T01:33:13.968Z,26.60
2018-03-14T01:35:40.095Z,27.53
2018-03-14T01:38:06.226Z,24.70
2018-03-14T01:40:32.399Z,26.47
2018-03-14T01:42:58.506Z,26.90
2018-03-14T01:45:24.702Z,27.63
2018-03-14T01:47:50.859Z,27.13
2018-03-14T01:50:17.148Z,28.03
2018-03-14T01:52:43.280Z,27.57
2018-03-14T01:55:09.418Z,29.80
2018-03-14T01:57:35.563Z,28.40
2018-03-14T02:00:01.743Z,27.27
2018-03-14T02:02:27.868Z,27.70
2018-03-14T02:04:54.764Z,28.80
2018-03-14T02:07:20.920Z,27.93
2018-03-14T02:09:47.113Z,29.23
2018-03-14T02:12:13.257Z,27.87
2018-03-14T02:14:39.399Z,29.17
2018-03-14T02:17:05.552Z,26.90
2018-03-14T02:19:31.719Z,28.97
2018-03-14T02:21:57.879Z,27.47
2018-03-14T02:24:24.008Z,28.70
2018-03-14T02:26:50.166Z,27.97
2018-03-14T02:29:16.304Z,29.10
2018-03-14T02:31:43.165Z,28.47
2018-03-14T02:34:09.302Z,29.80
2018-03-14T02:36:47.574Z,28.60
2018-03-14T02:39:13.712Z,28.70
2018-03-14T02:41:39.830Z,27.20
2018-03-14T02:44:05.990Z,28.70
2018-03-14T02:46:32.126Z,30.20
2018-03-14T02:48:58.237Z,29.97
2018-03-14T02:51:25.115Z,26.70
2018-03-14T02:53:51.272Z,28.30
2018-03-14T02:56:17.434Z,30.77
2018-03-14T02:58:43.557Z,27.13
2018-03-14T03:01:09.692Z,29.13
2018-03-14T03:03:35.877Z,27.70
2018-03-14T03:06:02.185Z,30.57
2018-03-14T03:08:28.561Z,28.60
2018-03-14T03:10:54.753Z,29.00
2018-03-14T03:13:20.896Z,29.43
2018-03-14T03:15:47.018Z,30.37
2018-03-14T03:18:13.124Z,28.77
2018-03-14T03:20:39.264Z,29.10
2018-03-14T03:23:05.377Z,31.07
2018-03-14T03:25:31.526Z,29.87
2018-03-14T03:27:57.622Z,27.97
2018-03-14T03:30:23.761Z,27.60
2018-03-14T03:32:49.892Z,27.30
2018-03-14T03:35:16.066Z,27.57
2018-03-14T03:37:42.245Z,29.17
2018-03-14T03:40:09.086Z,28.10
2018-03-14T03:42:35.213Z,29.67
2018-03-14T03:45:01.743Z,28.93
2018-03-14T03:47:27.886Z,27.80
2018-03-14T03:49:53.986Z,29.80
2018-03-14T03:52:20.247Z,28.60
2018-03-14T03:54:46.410Z,28.10
2018-03-14T03:57:12.548Z,31.30
2018-03-14T03:59:38.647Z,31.17
2018-03-14T04:02:04.808Z,32.97
2018-03-14T04:04:30.971Z,30.70
2018-03-14T04:06:57.142Z,32.60
2018-03-14T04:09:24.040Z,31.47
2018-03-14T04:11:50.157Z,32.30
2018-03-14T04:14:16.487Z,32.27
2018-03-14T04:16:42.624Z,32.63
2018-03-14T04:19:08.861Z,34.10
2018-03-14T04:21:35.178Z,30.90
2018-03-14T04:24:02.458Z,32.03
2018-03-14T04:26:29.045Z,32.33
2018-03-14T04:28:55.489Z,32.60
2018-03-14T04:31:21.632Z,34.20
2018-03-14T04:33:47.812Z,33.50
2018-03-14T04:36:13.996Z,33.27
2018-03-14T04:38:40.160Z,31.80
2018-03-14T04:41:06.405Z,33.00
2018-03-14T04:43:32.535Z,35.73
2018-03-14T04:45:58.682Z,36.20
2018-03-14T04:48:24.802Z,35.63
2018-03-14T04:50:50.954Z,36.50
2018-03-14T04:53:17.105Z,36.57
2018-03-14T04:55:43.253Z,36.93
2018-03-14T04:58:09.419Z,36.63
2018-03-14T05:00:35.580Z,39.53
2018-03-14T05:03:02.845Z,39.00
2018-03-14T05:05:29.231Z,38.37
2018-03-14T05:07:55.529Z,39.77
2018-03-14T05:10:21.773Z,40.57
2018-03-14T05:12:51.893Z,38.50
2018-03-14T05:15:18.332Z,38.13
2018-03-14T05:17:44.492Z,40.53
2018-03-14T05:20:10.668Z,42.73
2018-03-14T05:22:36.844Z,39.90
2018-03-14T05:25:03.016Z,38.77
2018-03-14T05:27:29.176Z,44.43
2018-03-14T05:29:55.537Z,42.10
2018-03-14T05:32:21.754Z,38.00
2018-03-14T05:34:48.166Z,43.03
2018-03-14T05:37:14.460Z,44.67
2018-03-14T05:39:40.683Z,43.80
2018-03-14T05:42:06.994Z,45.17
2018-03-14T05:44:33.148Z,44.57
2018-03-14T05:46:59.448Z,44.97
2018-03-14T05:49:25.616Z,46.00
2018-03-14T05:51:52.560Z,46.40
2018-03-14T05:54:18.793Z,46.87
2018-03-14T05:56:45.026Z,48.30
2018-03-14T05:59:11.318Z,50.80
2018-03-14T06:01:38.330Z,48.27
2018-03-14T06:04:05.324Z,49.90
2018-03-14T06:06:31.615Z,49.30
2018-03-14T06:08:57.798Z,51.60
2018-03-14T06:11:24.714Z,50.13
2018-03-14T06:13:51.655Z,51.53
2018-03-14T06:16:18.233Z,50.67
2018-03-14T06:18:44.481Z,50.87
2018-03-14T06:21:10.605Z,51.00
2018-03-14T06:23:36.834Z,53.83
2018-03-14T06:26:03.104Z,50.90
2018-03-14T06:28:31.192Z,51.80
2018-03-14T06:30:58.477Z,50.43
2018-03-14T06:33:25.358Z,52.80
2018-03-14T06:39:00.647Z,53.67
2018-03-14T06:41:26.999Z,55.37
2018-03-14T06:43:53.327Z,62.77
2018-03-14T06:46:20.059Z,53.83
2018-03-14T06:49:07.515Z,55.07
2018-03-14T06:51:51.978Z,54.30
2018-03-14T06:54:18.303Z,57.47
2018-03-14T06:56:45.379Z,57.57
2018-03-14T06:59:23.806Z,57.37
2018-03-14T07:07:34.642Z,54.77
2018-03-14T07:10:00.951Z,49.53
2018-03-14T07:12:27.320Z,54.57
2018-03-14T07:14:53.707Z,53.10
2018-03-14T07:17:19.889Z,52.63
2018-03-14T07:19:46.100Z,50.23
2018-03-14T07:22:12.321Z,52.83
2018-03-14T07:24:39.599Z,54.17
2018-03-14T07:27:05.769Z,49.53
2018-03-14T07:29:32.026Z,51.67
2018-03-14T07:31:58.232Z,51.47
2018-03-14T07:34:24.401Z,50.57
2018-03-14T07:36:50.601Z,53.97
2018-03-14T07:39:16.820Z,50.07
2018-03-14T07:41:43.744Z,50.27
2018-03-14T07:44:10.005Z,49.27
2018-03-14T07:46:36.265Z,49.70
2018-03-14T07:49:02.674Z,50.00
2018-03-14T07:51:29.206Z,51.47
2018-03-14T07:53:55.513Z,49.27
2018-03-14T07:56:21.661Z,46.60
2018-03-14T07:58:47.820Z,46.10
2018-03-14T08:01:14.020Z,48.00
2018-03-14T08:03:40.921Z,47.67
2018-03-14T08:06:07.103Z,46.33
2018-03-14T08:08:33.249Z,48.53
2018-03-14T08:10:59.437Z,45.70
2018-03-14T08:13:48.030Z,45.83
2018-03-14T08:16:14.104Z,44.73
2018-03-14T08:18:40.359Z,43.53
2018-03-14T08:21:07.608Z,45.93
2018-03-14T08:23:34.517Z,45.40
2018-03-14T08:26:00.776Z,48.67
2018-03-14T08:28:26.909Z,44.13
2018-03-14T08:30:53.095Z,46.27
2018-03-14T08:33:20.022Z,48.10
2018-03-14T08:35:46.212Z,45.07
2018-03-14T08:38:12.666Z,42.87
2018-03-14T08:40:38.912Z,44.80
2018-03-14T08:43:05.139Z,43.13
2018-03-14T08:45:31.368Z,39.03
2018-03-14T08:47:57.516Z,40.63
2018-03-14T08:50:23.711Z,42.43
2018-03-14T08:52:49.857Z,39.90
2018-03-14T08:55:16.026Z,39.83
2018-03-14T08:57:42.254Z,42.23
2018-03-14T09:00:09.265Z,34.60
2018-03-14T09:02:35.483Z,33.67
2018-03-14T09:05:01.746Z,31.40
2018-03-14T09:07:27.995Z,32.43
2018-03-14T09:09:54.168Z,35.00
2018-03-14T09:12:21.637Z,35.20
2018-03-14T09:14:48.566Z,35.07
2018-03-14T09:17:14.710Z,32.77
2018-03-14T09:19:40.923Z,32.13
2018-03-14T09:22:09.174Z,30.20
2018-03-14T09:24:35.330Z,28.63
2018-03-14T09:27:01.501Z,29.30
2018-03-14T09:29:27.766Z,28.93
2018-03-14T09:31:54.061Z,30.10
2018-03-14T09:34:20.217Z,30.13
2018-03-14T09:36:46.436Z,28.27
2018-03-14T09:39:12.577Z,28.00
2018-03-14T09:41:38.764Z,26.83
2018-03-14T09:44:04.992Z,27.63
2018-03-14T09:46:31.253Z,26.83
2018-03-14T09:48:57.405Z,25.60
2018-03-14T09:51:24.402Z,22.40
2018-03-14T09:53:50.592Z,23.57
2018-03-14T09:56:16.823Z,24.20
2018-03-14T09:58:42.996Z,24.63
2018-03-14T10:01:09.251Z,24.20
2018-03-14T10:03:35.550Z,26.50
2018-03-14T10:06:01.810Z,21.70
2018-03-14T10:08:28.051Z,23.93
2018-03-14T10:10:54.159Z,23.00
2018-03-14T10:13:20.269Z,22.37
2018-03-14T10:15:46.416Z,23.13
2018-03-14T10:18:12.554Z,23.30
2018-03-14T10:20:38.714Z,22.90
2018-03-14T10:23:04.847Z,22.97
2018-03-14T10:25:31.067Z,22.30
2018-03-14T10:27:57.220Z,23.43
2018-03-14T10:30:23.408Z,21.00
2018-03-14T10:32:50.303Z,23.20
2018-03-14T10:35:16.531Z,20.93
2018-03-14T10:37:43.432Z,20.37
2018-03-14T10:40:09.574Z,21.40
2018-03-14T10:42:35.699Z,21.20
2018-03-14T10:45:02.080Z,19.40
2018-03-14T10:47:28.185Z,19.20
2018-03-14T10:49:54.908Z,20.90
2018-03-14T10:52:21.068Z,20.43
2018-03-14T10:54:47.165Z,18.57
2018-03-14T10:57:14.062Z,18.00
2018-03-14T10:59:40.303Z,17.43
2018-03-14T11:02:12.519Z,17.70
2018-03-14T11:04:38.660Z,17.33
2018-03-14T11:07:04.862Z,17.97
2018-03-14T11:09:30.971Z,14.20
2018-03-14T11:11:57.842Z,13.53
2018-03-14T11:14:23.971Z,16.43
2018-03-14T11:16:51.187Z,16.27
2018-03-14T11:19:17.442Z,16.60
2018-03-14T11:21:44.247Z,19.50
2018-03-14T11:24:11.028Z,17.10
2018-03-14T11:26:37.380Z,17.37
2018-03-14T11:29:03.488Z,17.10
2018-03-14T11:31:29.685Z,16.87
2018-03-14T11:33:55.985Z,17.00
2018-03-14T11:36:23.063Z,16.47
2018-03-14T11:38:50.160Z,17.67
2018-03-14T11:41:16.832Z,16.80
2018-03-14T11:43:43.500Z,16.53
2018-03-14T11:46:09.636Z,15.77
2018-03-14T11:48:35.838Z,14.73
2018-03-14T11:51:03.518Z,17.13
2018-03-14T11:53:31.018Z,16.87
2018-03-14T11:55:57.340Z,13.50
2018-03-14T11:58:23.500Z,14.00
2018-03-14T12:00:50.119Z,14.60
2018-03-14T12:03:16.434Z,13.87
2018-03-14T12:05:43.671Z,13.53
2018-03-14T12:08:09.909Z,12.83
2018-03-14T12:10:37.032Z,13.60
2018-03-14T12:13:03.621Z,12.70
2018-03-14T12:15:30.616Z,11.80
2018-03-14T12:17:58.143Z,12.20
2018-03-14T13:21:58.511Z,10.80
2018-03-14T13:24:24.743Z,9.30
2018-03-14T13:26:51.618Z,10.90
2018-03-14T13:29:17.764Z,12.87
2018-03-14T13:31:43.962Z,10.77
2018-03-14T13:36:41.491Z,10.57
2018-03-14T13:39:08.439Z,11.10
2018-03-14T13:41:35.365Z,10.73
2018-03-14T13:44:01.772Z,10.60
2018-03-14T13:46:28.004Z,9.20
2018-03-14T13:48:54.435Z,10.03
2018-03-14T13:51:20.906Z,8.90
2018-03-14T13:53:47.062Z,10.03
2018-03-14T13:56:13.188Z,9.13
2018-03-14T13:58:39.615Z,10.10
2018-03-14T14:01:05.770Z,9.30
2018-03-14T14:03:31.897Z,8.87
2018-03-14T14:05:58.048Z,8.87
2018-03-14T14:08:24.159Z,8.93
2018-03-14T14:10:51.015Z,8.93
2018-03-14T14:13:17.951Z,8.63
2018-03-14T14:15:44.049Z,7.83
2018-03-14T14:18:10.237Z,7.90
2018-03-14T14:20:37.393Z,9.00
2018-03-14T14:23:03.593Z,9.37
2018-03-14T14:25:29.740Z,8.13
2018-03-14T14:27:56.198Z,8.43
2018-03-14T14:30:22.360Z,9.37
2018-03-14T14:32:48.619Z,8.40
2018-03-14T14:35:14.750Z,7.70
2018-03-14T14:37:41.622Z,9.00
2018-03-14T14:40:08.491Z,8.07
2018-03-14T14:42:34.592Z,8.33
2018-03-14T14:45:01.004Z,8.33
2018-03-14T14:47:27.160Z,7.90
2018-03-14T14:49:53.372Z,7.90
2018-03-14T14:52:19.581Z,8.13
2018-03-14T14:54:45.733Z,9.07
2018-03-14T14:57:12.228Z,9.00
2018-03-14T14:59:38.369Z,8.77
2018-03-14T15:02:04.512Z,8.70
2018-03-14T15:04:30.974Z,9.07
2018-03-14T15:06:57.916Z,9.57
2018-03-14T15:09:24.083Z,7.30
2018-03-14T15:11:50.236Z,8.40
2018-03-14T15:14:16.461Z,11.47
2018-03-14T15:16:43.366Z,7.40
2018-03-14T15:19:09.725Z,7.90
2018-03-14T15:21:35.972Z,7.03
2018-03-14T15:24:02.058Z,6.53
2018-03-14T15:26:28.230Z,7.10
2018-03-14T15:28:54.391Z,6.97
2018-03-14T15:31:20.517Z,7.77
2018-03-14T15:33:47.059Z,7.10
2018-03-14T15:36:13.237Z,8.27
2018-03-14T15:38:39.407Z,7.60
2018-03-14T15:41:05.547Z,6.43
2018-03-14T15:43:31.838Z,6.77
2018-03-14T15:45:58.021Z,7.10
2018-03-14T15:48:24.200Z,6.50
2018-03-14T15:50:50.380Z,6.37
2018-03-14T15:53:16.717Z,5.47
2018-03-14T15:55:42.886Z,6.40
2018-03-14T15:58:09.115Z,7.30
2018-03-14T16:00:35.949Z,6.20
2018-03-14T16:03:02.148Z,7.30
2018-03-14T16:05:28.288Z,5.67
2018-03-14T16:07:54.476Z,5.50
2018-03-14T16:10:21.424Z,6.10
2018-03-14T16:12:47.593Z,5.90
2018-03-14T16:15:13.804Z,6.23
2018-03-14T16:17:39.957Z,6.40
2018-03-14T16:20:06.889Z,5.70
2018-03-14T16:22:33.086Z,5.60
2018-03-14T16:24:59.234Z,5.93
2018-03-14T16:27:25.359Z,5.80
2018-03-14T16:29:51.506Z,5.80
2018-03-14T16:32:17.658Z,5.93
2018-03-14T16:34:43.868Z,6.87
2018-03-14T16:37:18.712Z,5.83
2018-03-14T16:39:46.596Z,6.70
2018-03-14T16:42:13.318Z,6.43
2018-03-14T16:44:40.305Z,6.57
2018-03-14T16:47:07.187Z,5.50
2018-03-14T16:49:34.135Z,6.20
2018-03-14T16:52:00.319Z,5.20
2018-03-14T16:54:26.496Z,6.63
2018-03-14T16:56:53.369Z,6.37
2018-03-14T16:59:19.501Z,5.77
2018-03-14T17:01:45.673Z,6.30
2018-03-14T17:04:12.138Z,5.57
2018-03-14T17:06:38.977Z,6.10
2018-03-14T17:09:05.184Z,5.60
2018-03-14T17:11:31.346Z,6.43
2018-03-14T17:13:57.941Z,5.73
2018-03-14T17:16:24.888Z,6.30
2018-03-14T17:18:51.013Z,6.20
2018-03-14T17:21:17.148Z,6.27
2018-03-14T17:23:43.305Z,5.90
2018-03-14T17:26:09.682Z,5.77
2018-03-14T17:28:37.133Z,5.43
2018-03-14T17:31:03.289Z,6.47
2018-03-14T17:33:30.178Z,8.00
2018-03-14T17:51:08.589Z,7.27
2018-03-14T17:53:34.742Z,6.10
2018-03-14T17:56:00.865Z,6.63
2018-03-14T17:58:27.776Z,6.30
2018-03-14T18:00:54.769Z,6.23
2018-03-14T18:03:20.868Z,6.60
2018-03-14T18:05:47.006Z,5.63
2018-03-14T18:08:13.916Z,6.47
2018-03-14T18:10:40.342Z,5.40
2018-03-14T18:13:06.532Z,6.20
2018-03-14T18:15:32.729Z,5.87
2018-03-14T18:17:59.258Z,5.70
2018-03-14T18:20:25.488Z,5.90
2018-03-14T18:22:52.450Z,6.03
2018-03-14T18:25:19.400Z,7.00
2018-03-14T18:27:46.264Z,7.03
2018-03-14T18:30:13.160Z,6.47
2018-03-14T18:32:40.038Z,5.93
2018-03-14T18:35:06.144Z,7.50
2018-03-14T18:37:32.313Z,7.20
2018-03-14T18:39:58.428Z,6.60
2018-03-14T18:42:24.589Z,6.67
2018-03-14T18:44:50.704Z,6.90
2018-03-14T18:47:16.954Z,6.40
2018-03-14T18:49:43.159Z,6.90
2018-03-14T18:52:11.055Z,7.20
2018-03-14T18:54:37.249Z,6.17
2018-03-14T18:57:03.401Z,6.80
2018-03-14T18:59:30.319Z,7.00
2018-03-14T19:01:56.425Z,7.07
2018-03-14T19:04:22.560Z,6.57
2018-03-14T19:06:48.719Z,6.03
2018-03-14T19:09:14.935Z,6.70
2018-03-14T19:11:41.037Z,7.30
2018-03-14T19:14:07.180Z,6.87
2018-03-14T19:16:33.329Z,6.97
2018-03-14T19:18:59.463Z,6.97
2018-03-14T19:21:25.613Z,7.20
2018-03-14T19:23:52.556Z,6.80
2018-03-14T19:26:18.770Z,6.63
2018-03-14T19:28:44.908Z,6.70
2018-03-14T19:31:11.039Z,6.60
2018-03-14T19:33:37.231Z,7.17
2018-03-14T19:36:03.487Z,6.70
2018-03-14T19:38:29.892Z,7.87
2018-03-14T19:40:56.070Z,9.00
2018-03-14T19:43:22.224Z,8.23
2018-03-14T19:45:48.620Z,7.80
2018-03-14T19:48:14.909Z,9.37
2018-03-14T19:50:41.132Z,7.57
2018-03-14T19:53:08.061Z,7.43
2018-03-14T19:55:34.324Z,8.20
2018-03-14T19:58:00.716Z,8.20
2018-03-14T20:00:26.872Z,7.83
2018-03-14T20:02:53.095Z,7.80
2018-03-14T20:05:19.253Z,9.33
2018-03-14T20:07:45.404Z,8.13
2018-03-14T20:10:11.561Z,8.40
2018-03-14T20:12:38.457Z,8.97
2018-03-14T20:15:04.610Z,9.00
2018-03-14T20:17:30.767Z,9.90
2018-03-14T20:19:56.892Z,10.83
2018-03-14T20:22:23.061Z,11.90
2018-03-14T20:24:49.319Z,9.60
2018-03-14T20:27:16.260Z,10.47
2018-03-14T20:29:42.417Z,9.50
2018-03-14T20:32:08.586Z,10.43
2018-03-14T20:34:35.464Z,9.43
2018-03-14T20:37:01.616Z,12.27
2018-03-14T20:39:27.793Z,9.50
2018-03-14T20:41:53.937Z,10.30
2018-03-14T20:44:20.146Z,9.73
2018-03-14T20:46:46.272Z,9.73
2018-03-14T20:49:14.900Z,10.40
2018-03-14T20:51:42.427Z,11.63
2018-03-14T20:54:10.005Z,10.47
2018-03-14T20:56:36.281Z,10.63
2018-03-14T20:59:02.514Z,10.63
2018-03-14T21:01:29.149Z,11.90
2018-03-14T21:03:55.269Z,11.23
2018-03-14T21:06:21.466Z,12.47
2018-03-14T21:08:47.774Z,11.43
2018-03-14T21:11:13.897Z,10.67
2018-03-14T21:13:41.585Z,11.90
2018-03-14T21:16:07.733Z,10.80
2018-03-14T21:18:33.992Z,13.07
2018-03-14T21:21:00.168Z,13.27
2018-03-14T21:23:31.018Z,11.90
2018-03-14T21:25:57.505Z,12.60
2018-03-14T21:28:24.148Z,12.50
2018-03-14T21:30:50.265Z,13.60
2018-03-14T21:33:16.517Z,12.70
2018-03-14T21:35:43.404Z,14.07
2018-03-14T21:38:09.541Z,13.30
2018-03-14T21:40:35.805Z,13.60
2018-03-14T21:43:06.391Z,14.27
2018-03-14T21:45:33.452Z,12.70
2018-03-14T21:47:59.624Z,14.63
2018-03-14T21:50:26.248Z,12.57
2018-03-14T21:52:52.594Z,13.30
2018-03-14T21:55:31.189Z,15.70
2018-03-14T21:57:57.330Z,14.80
2018-03-14T22:00:24.204Z,14.93
2018-03-14T22:02:50.798Z,14.57
2018-03-14T22:05:17.024Z,14.27
2018-03-14T22:07:43.173Z,15.97
2018-03-14T22:10:09.275Z,16.00
2018-03-14T22:12:35.508Z,15.27
2018-03-14T22:15:02.548Z,14.47
2018-03-14T22:17:28.659Z,16.67
2018-03-14T22:19:54.828Z,15.60
2018-03-14T22:22:20.926Z,15.20
2018-03-14T22:24:47.092Z,17.47
2018-03-14T22:27:14.018Z,17.00
2018-03-14T22:29:40.173Z,17.13
2018-03-14T22:32:07.879Z,15.50
2018-03-14T22:34:34.414Z,17.07
2018-03-14T22:37:01.341Z,15.17
2018-03-14T22:39:28.177Z,15.37
2018-03-14T22:41:56.993Z,16.30
2018-03-14T22:44:23.124Z,17.00
2018-03-14T22:46:51.232Z,15.80
2018-03-14T22:49:17.855Z,16.67
2018-03-14T22:51:44.117Z,15.80
2018-03-14T22:54:10.378Z,16.63
2018-03-14T22:56:36.521Z,18.90
2018-03-14T22:59:02.652Z,16.10
2018-03-14T23:01:28.894Z,14.83
2018-03-14T23:03:59.832Z,16.47
2018-03-14T23:06:25.988Z,16.77
2018-03-14T23:08:52.879Z,16.33
2018-03-14T23:11:28.649Z,17.47
2018-03-14T23:13:55.124Z,17.00
2018-03-14T23:16:21.255Z,16.50
2018-03-14T23:18:48.221Z,17.07
2018-03-14T23:21:15.029Z,14.93
2018-03-14T23:23:41.154Z,17.17
2018-03-14T23:26:08.034Z,15.00
2018-03-14T23:28:34.184Z,15.37
2018-03-14T23:31:00.614Z,15.93
2018-03-14T23:33:26.723Z,17.10
2018-03-14T23:35:52.833Z,16.43
2018-03-14T23:38:18.964Z,15.80
2018-03-14T23:40:45.067Z,17.07
2018-03-14T23:43:11.168Z,16.77
2018-03-14T23:45:37.296Z,17.13
2018-03-14T23:48:03.437Z,15.87
2018-03-14T23:50:29.593Z,17.23
2018-03-14T23:52:55.714Z,16.17
2018-03-14T23:55:21.850Z,15.23
2018-03-14T23:57:47.990Z,17.20
